Time;durP1;ratioP1;P1;durP2;ratioP2;P2;SDS_P1;SDS_P2;PMS_P1;PMS_P2;Temp;Humidity;BMP_temperature;BMP_pressure;BME280_temperature;BME280_humidity;BME280_pressure;Samples;Min_cycle;Max_cycle;Signal;HPM_P1;HPM_P2
2023/06/11 00:02:15;;;;;;;11.85;7.05;;;21.30;98.50;;;;;;5004496;28;20015;-79
2023/06/11 00:04:45;;;;;;;10.55;6.55;;;21.30;98.60;;;;;;5010635;28;20035;-80
2023/06/11 00:07:11;;;;;;;9.45;6.78;;;21.30;98.70;;;;;;4997613;28;20034;-80
2023/06/11 00:09:37;;;;;;;9.65;7.05;;;21.30;98.80;;;;;;4990441;28;20026;-79
2023/06/11 00:12:03;;;;;;;7.75;6.70;;;21.30;98.80;;;;;;4990814;28;20466;-80
2023/06/11 00:14:28;;;;;;;8.15;6.85;;;21.30;98.80;;;;;;4990430;28;20036;-81
2023/06/11 00:17:00;;;;;;;10.63;6.60;;;21.30;98.90;;;;;;4990308;28;20382;-76
2023/06/11 00:19:29;;;;;;;;;;;21.20;98.80;;;;;;4990650;28;20488;-80
2023/06/11 00:21:56;;;;;;;12.60;6.60;;;21.20;98.70;;;;;;4990516;28;19906;-81
2023/06/11 00:24:22;;;;;;;13.75;6.30;;;21.30;98.60;;;;;;4990479;28;20129;-80
2023/06/11 00:26:48;;;;;;;8.13;6.10;;;21.20;98.50;;;;;;4990105;28;20102;-81
2023/06/11 00:29:13;;;;;;;7.72;6.50;;;21.20;98.50;;;;;;4989061;28;20041;-80
2023/06/11 00:31:39;;;;;;;7.03;6.32;;;21.20;98.50;;;;;;4990210;28;20031;-78
2023/06/11 00:34:05;;;;;;;8.40;6.40;;;21.10;98.40;;;;;;4990147;28;20027;-81
2023/06/11 00:36:33;;;;;;;11.32;5.82;;;21.20;98.30;;;;;;4990230;28;20023;-80
2023/06/11 00:38:58;;;;;;;10.68;5.88;;;21.20;98.00;;;;;;4990108;28;20118;-77
2023/06/11 00:41:24;;;;;;;6.00;5.50;;;21.20;97.90;;;;;;4990314;28;20105;-80
2023/06/11 00:43:54;;;;;;;8.70;6.80;;;21.10;97.70;;;;;;4990163;28;20062;-79
2023/06/11 00:46:21;;;;;;;6.80;6.05;;;21.10;97.80;;;;;;4988899;28;20328;-80
2023/06/11 00:48:48;;;;;;;7.40;6.45;;;21.10;97.80;;;;;;4990380;28;20033;-79
2023/06/11 00:51:15;;;;;;;6.90;6.15;;;21.10;97.80;;;;;;4990724;28;20022;-80
2023/06/11 00:53:41;;;;;;;8.05;6.00;;;21.10;97.80;;;;;;4993423;28;20018;-80
2023/06/11 00:56:07;;;;;;;8.13;5.82;;;21.10;98.10;;;;;;4993209;28;20339;-79
2023/06/11 00:58:33;;;;;;;8.48;6.20;;;21.10;97.70;;;;;;4991250;28;20038;-80
2023/06/11 01:01:00;;;;;;;8.25;6.63;;;21.10;97.60;;;;;;4990262;28;20101;-78
2023/06/11 01:03:27;;;;;;;7.18;5.20;;;21.10;97.70;;;;;;4990529;28;20386;-77
2023/06/11 01:06:05;;;;;;;5.20;4.60;;;21.10;97.30;;;;;;4991079;28;20061;-80
2023/06/11 01:08:38;;;;;;;6.70;3.90;;;21.10;97.10;;;;;;4993145;28;20380;-78
2023/06/11 01:11:08;;;;;;;5.82;3.17;;;21.10;96.80;;;;;;4991821;28;20147;-78
2023/06/11 01:13:36;;;;;;;3.35;3.05;;;21.10;96.20;;;;;;4992340;28;20386;-81
2023/06/11 01:16:14;;;;;;;4.15;3.00;;;21.00;96.00;;;;;;4993102;28;20034;-80
2023/06/11 01:18:58;;;;;;;4.45;2.60;;;21.00;95.80;;;;;;4993142;28;20057;-80
2023/06/11 01:21:33;;;;;;;4.03;2.67;;;21.00;95.50;;;;;;4992599;28;20034;-80
2023/06/11 01:24:18;;;;;;;2.95;2.10;;;21.00;95.30;;;;;;4992400;28;20042;-81
2023/06/11 01:27:18;;;;;;;4.97;1.88;;;21.00;95.10;;;;;;4992308;28;20559;-80
2023/06/11 01:29:49;;;;;;;2.78;1.90;;;21.00;94.40;;;;;;4992398;28;20470;-80
2023/06/11 01:32:17;;;;;;;3.83;1.73;;;21.00;93.90;;;;;;4992489;28;20041;-79
2023/06/11 01:34:43;;;;;;;4.20;2.10;;;20.90;94.10;;;;;;4992829;28;20023;-80
2023/06/11 01:37:15;;;;;;;2.50;1.80;;;20.90;94.00;;;;;;4992581;28;20082;-79
2023/06/11 01:39:45;;;;;;;5.28;1.70;;;20.90;93.80;;;;;;4992434;28;20029;-80
2023/06/11 01:42:11;;;;;;;4.97;1.55;;;20.90;93.80;;;;;;4992165;28;20113;-79
2023/06/11 01:44:37;;;;;;;2.72;1.40;;;20.90;93.80;;;;;;4992193;28;20100;-79
2023/06/11 01:47:03;;;;;;;2.95;1.73;;;20.80;93.70;;;;;;4992521;28;20054;-80
2023/06/11 01:49:28;;;;;;;2.20;1.60;;;20.80;93.70;;;;;;4992487;28;20062;-80
2023/06/11 01:51:54;;;;;;;5.25;1.55;;;20.70;93.50;;;;;;4992100;28;20022;-80
2023/06/11 01:54:20;;;;;;;3.80;1.73;;;20.80;93.70;;;;;;4992522;28;20486;-80
2023/06/11 01:56:46;;;;;;;5.57;1.75;;;20.70;93.80;;;;;;4992344;28;20029;-79
2023/06/11 01:59:12;;;;;;;5.45;2.45;;;20.70;93.80;;;;;;4992194;28;20033;-79
2023/06/11 02:01:40;;;;;;;5.43;1.95;;;20.70;93.60;;;;;;4991779;28;20498;-80
2023/06/11 02:04:06;;;;;;;2.75;1.88;;;20.70;93.60;;;;;;4992201;28;20038;-79
2023/06/11 02:06:32;;;;;;;3.80;1.77;;;20.70;93.80;;;;;;4992284;28;20021;-80
2023/06/11 02:08:57;;;;;;;2.58;2.15;;;20.70;93.70;;;;;;4992092;28;20022;-80
2023/06/11 02:11:23;;;;;;;4.57;2.30;;;20.60;93.90;;;;;;4991684;28;20474;-78
2023/06/11 02:13:48;;;;;;;3.70;2.90;;;20.60;93.90;;;;;;4992030;28;20038;-80
2023/06/11 02:16:14;;;;;;;6.85;3.40;;;20.60;94.10;;;;;;4992045;28;20019;-81
2023/06/11 02:18:40;;;;;;;8.88;4.07;;;20.60;94.40;;;;;;4992047;28;20034;-81
2023/06/11 02:21:05;;;;;;;5.25;4.50;;;20.60;94.70;;;;;;4992028;28;20029;-79
2023/06/11 02:23:31;;;;;;;12.63;5.68;;;20.60;95.30;;;;;;4991641;28;20026;-80
2023/06/11 02:25:57;;;;;;;13.82;5.35;;;20.50;95.50;;;;;;4991832;28;20036;-81
2023/06/11 02:28:22;;;;;;;6.50;5.85;;;20.50;95.70;;;;;;4991804;28;20471;-80
2023/06/11 02:30:48;;;;;;;9.05;6.18;;;20.50;96.20;;;;;;4991885;28;20038;-80
2023/06/11 02:33:13;;;;;;;6.80;5.82;;;20.50;96.30;;;;;;4991839;28;20032;-80
2023/06/11 02:35:39;;;;;;;10.52;5.85;;;20.50;96.40;;;;;;4991536;28;20046;-80
2023/06/11 02:38:05;;;;;;;9.73;5.63;;;20.50;96.50;;;;;;4991500;28;20413;-80
2023/06/11 02:40:30;;;;;;;10.57;6.40;;;20.50;96.70;;;;;;4991698;28;20157;-80
2023/06/11 02:42:56;;;;;;;7.53;5.38;;;20.50;96.90;;;;;;4991380;28;20022;-80
2023/06/11 02:45:22;;;;;;;6.47;5.85;;;20.50;96.90;;;;;;4991455;28;20035;-80
2023/06/11 02:47:47;;;;;;;10.25;6.30;;;20.50;96.90;;;;;;4991550;28;20382;-80
2023/06/11 02:50:13;;;;;;;6.60;6.00;;;20.50;96.90;;;;;;4991434;28;20057;-80
2023/06/11 02:52:38;;;;;;;7.22;6.10;;;20.40;96.90;;;;;;4991390;28;20475;-81
2023/06/11 02:55:05;;;;;;;9.05;5.90;;;20.40;97.10;;;;;;4991321;28;20442;-79
2023/06/11 02:57:30;;;;;;;6.45;5.80;;;20.40;97.10;;;;;;4991093;28;20467;-80
2023/06/11 02:59:56;;;;;;;6.80;6.10;;;20.40;97.10;;;;;;4991158;28;20045;-78
2023/06/11 03:02:21;;;;;;;12.90;6.00;;;20.40;97.00;;;;;;4991331;28;20058;-81
2023/06/11 03:04:47;;;;;;;7.72;5.85;;;20.40;97.00;;;;;;4991411;28;20037;-81
2023/06/11 03:07:13;;;;;;;6.90;6.20;;;20.40;97.00;;;;;;4991015;28;20110;-79
2023/06/11 03:09:38;;;;;;;6.45;5.75;;;20.30;97.00;;;;;;4991050;28;20026;-79
2023/06/11 03:12:05;;;;;;;7.18;5.68;;;20.30;97.00;;;;;;4991172;28;20054;-80
2023/06/11 03:14:31;;;;;;;6.32;5.70;;;20.30;97.10;;;;;;4990584;28;20604;-81
2023/06/11 03:16:56;;;;;;;7.65;6.10;;;20.30;97.00;;;;;;4990930;28;20101;-80
2023/06/11 03:19:22;;;;;;;7.65;5.20;;;20.30;96.80;;;;;;4990883;28;20027;-80
2023/06/11 03:21:48;;;;;;;7.53;5.22;;;20.30;96.80;;;;;;4990932;28;20312;-80
2023/06/11 03:24:14;;;;;;;9.48;5.75;;;20.30;96.70;;;;;;4991030;28;20041;-80
2023/06/11 03:26:40;;;;;;;6.68;5.05;;;20.20;96.70;;;;;;4990458;28;20457;-78
2023/06/11 03:29:06;;;;;;;5.85;5.05;;;20.20;96.70;;;;;;4990698;28;20022;-81
2023/06/11 03:31:31;;;;;;;7.50;5.18;;;20.20;96.60;;;;;;4990738;28;20026;-79
2023/06/11 03:33:57;;;;;;;6.38;4.88;;;20.20;96.50;;;;;;4990626;28;20022;-81
2023/06/11 03:36:23;;;;;;;5.22;4.60;;;20.20;96.50;;;;;;4990755;28;20034;-80
2023/06/11 03:38:49;;;;;;;5.90;4.18;;;20.20;96.40;;;;;;4990600;28;20027;-81
2023/06/11 03:41:14;;;;;;;4.57;4.10;;;20.20;96.40;;;;;;4990571;28;20721;-79
2023/06/11 03:43:40;;;;;;;7.50;4.00;;;20.10;96.30;;;;;;4989200;28;20054;-78
2023/06/11 03:46:06;;;;;;;5.07;3.92;;;20.10;96.30;;;;;;4990709;28;20032;-78
2023/06/11 03:48:31;;;;;;;5.82;4.35;;;20.10;96.20;;;;;;4990673;28;20382;-80
2023/06/11 03:50:57;;;;;;;5.05;4.38;;;20.10;96.20;;;;;;4990382;28;20075;-80
2023/06/11 03:53:23;;;;;;;5.43;3.75;;;20.10;96.20;;;;;;4990380;28;20026;-80
2023/06/11 03:55:48;;;;;;;4.13;3.50;;;20.10;96.10;;;;;;4990587;28;20470;-78
2023/06/11 03:58:14;;;;;;;6.68;4.20;;;20.20;96.10;;;;;;4990182;28;20363;-79
2023/06/11 04:00:40;;;;;;;11.63;4.20;;;20.10;96.10;;;;;;4990831;28;20027;-79
2023/06/11 04:03:06;;;;;;;5.00;3.97;;;20.10;96.00;;;;;;4990377;28;20027;-79
2023/06/11 04:05:37;;;;;;;6.00;3.72;;;20.20;96.10;;;;;;4990612;28;20402;-81
2023/06/11 04:08:04;;;;;;;7.68;4.15;;;20.10;95.70;;;;;;4990370;28;20466;-81
2023/06/11 04:10:29;;;;;;;6.45;4.10;;;20.10;95.70;;;;;;4990400;28;20037;-80
2023/06/11 04:12:55;;;;;;;4.13;3.60;;;20.10;95.80;;;;;;4990342;28;20019;-81
2023/06/11 04:15:21;;;;;;;7.40;4.47;;;20.10;96.00;;;;;;4990328;28;20475;-79
2023/06/11 04:17:47;;;;;;;5.18;3.90;;;20.10;96.30;;;;;;4990444;28;20029;-78
2023/06/11 04:20:12;;;;;;;7.90;4.00;;;20.00;96.30;;;;;;4990150;28;20413;-80
2023/06/11 04:22:38;;;;;;;7.30;3.47;;;20.10;96.30;;;;;;4990163;28;20105;-80
2023/06/11 04:25:04;;;;;;;6.88;3.88;;;20.00;96.40;;;;;;4990042;28;20046;-80
2023/06/11 04:27:33;;;;;;;10.70;3.83;;;20.00;96.40;;;;;;4992731;28;20027;-81
2023/06/11 04:30:00;;;;;;;7.30;4.22;;;20.00;96.50;;;;;;4993573;28;20063;-81
2023/06/11 04:32:26;;;;;;;6.40;4.47;;;20.00;96.60;;;;;;4993689;28;20034;-80
2023/06/11 04:34:53;;;;;;;5.55;3.70;;;20.00;96.70;;;;;;4993565;28;20026;-79
2023/06/11 04:37:19;;;;;;;7.70;4.05;;;20.00;96.80;;;;;;4993347;28;20390;-78
2023/06/11 04:39:45;;;;;;;6.07;4.03;;;20.00;96.80;;;;;;4993274;28;20037;-78
2023/06/11 04:42:14;;;;;;;5.70;3.70;;;20.00;96.90;;;;;;4993599;28;20010;-80
2023/06/11 04:44:40;;;;;;;5.97;4.60;;;20.00;96.80;;;;;;4993219;28;20520;-79
2023/06/11 04:47:06;;;;;;;7.72;3.72;;;20.00;96.80;;;;;;4993221;28;20107;-81
2023/06/11 04:49:32;;;;;;;4.85;3.88;;;20.00;96.90;;;;;;4993490;28;20382;-80
2023/06/11 04:51:58;;;;;;;10.10;3.95;;;20.00;97.00;;;;;;4992981;28;20026;-79
2023/06/11 04:54:24;;;;;;;5.00;4.15;;;20.00;97.10;;;;;;4993361;28;20113;-80
2023/06/11 04:56:50;;;;;;;8.48;3.20;;;20.00;97.20;;;;;;4993342;28;20023;-80
2023/06/11 04:59:16;;;;;;;3.97;3.13;;;20.10;97.10;;;;;;4992840;28;20034;-80
2023/06/11 05:01:50;;;;;;;7.55;3.15;;;20.10;96.80;;;;;;4992759;28;20030;-79
2023/06/11 05:04:15;;;;;;;11.23;3.25;;;20.10;96.70;;;;;;4992544;28;20121;-80
2023/06/11 05:06:48;;;;;;;7.25;3.03;;;20.10;96.50;;;;;;4993112;28;20054;-80
2023/06/11 05:09:13;;;;;;;5.55;3.42;;;20.20;96.50;;;;;;4992836;28;20030;-80
2023/06/11 05:11:44;;;;;;;8.95;4.07;;;20.20;96.80;;;;;;4992922;28;20027;-80
2023/06/11 05:14:10;;;;;;;4.70;2.67;;;20.20;96.80;;;;;;4992852;28;20034;-80
2023/06/11 05:16:37;;;;;;;4.75;2.88;;;20.30;96.70;;;;;;4992782;28;20022;-79
2023/06/11 05:19:03;;;;;;;7.30;2.90;;;20.30;96.60;;;;;;4992647;28;20490;-78
2023/06/11 05:21:29;;;;;;;4.03;3.30;;;20.30;96.50;;;;;;4992682;28;20113;-80
2023/06/11 05:23:56;;;;;;;3.45;3.15;;;20.30;96.40;;;;;;4992983;28;20042;-79
2023/06/11 05:26:32;;;;;;;5.72;2.88;;;20.30;96.50;;;;;;4992513;28;20354;-75
2023/06/11 05:28:58;;;;;;;6.15;2.90;;;20.30;96.70;;;;;;4993118;28;20027;-79
2023/06/11 05:31:23;;;;;;;4.15;2.75;;;20.30;96.60;;;;;;4990038;28;20374;-79
2023/06/11 05:33:49;;;;;;;4.90;2.90;;;20.30;96.60;;;;;;4990828;28;20038;-78
2023/06/11 05:36:16;;;;;;;8.60;3.30;;;20.40;96.50;;;;;;4992471;28;20023;-77
2023/06/11 05:38:43;;;;;;;5.18;3.75;;;20.40;96.40;;;;;;4992121;28;20022;-80
2023/06/11 05:41:08;;;;;;;6.82;3.30;;;20.40;96.50;;;;;;4992399;28;20474;-77
2023/06/11 05:43:35;;;;;;;7.40;2.67;;;20.50;96.60;;;;;;4992328;28;20099;-77
2023/06/11 05:46:01;;;;;;;3.00;2.70;;;20.50;96.40;;;;;;4992496;28;20026;-79
2023/06/11 05:48:28;;;;;;;4.47;2.80;;;20.60;96.10;;;;;;4991383;28;20511;-76
2023/06/11 05:50:54;;;;;;;6.45;2.75;;;20.60;95.60;;;;;;4991771;28;20034;-78
2023/06/11 05:53:20;;;;;;;5.75;2.80;;;20.70;95.40;;;;;;4991663;28;20022;-79
2023/06/11 05:55:46;;;;;;;3.50;2.40;;;20.70;95.20;;;;;;5003192;28;20038;-78
2023/06/11 05:58:11;;;;;;;5.65;2.58;;;20.80;95.00;;;;;;4991633;28;20084;-73
2023/06/11 06:00:37;;;;;;;6.00;2.45;;;20.90;94.90;;;;;;4990358;28;20026;-73
2023/06/11 06:03:04;;;;;;;4.75;2.60;;;20.90;94.80;;;;;;4991715;28;20034;-75
2023/06/11 06:05:30;;;;;;;3.15;2.50;;;21.00;94.60;;;;;;4991945;28;20030;-74
2023/06/11 06:07:56;;;;;;;4.18;2.75;;;21.00;94.40;;;;;;4991802;28;20543;-74
2023/06/11 06:10:21;;;;;;;4.03;2.33;;;21.10;94.40;;;;;;4991928;28;20026;-74
2023/06/11 06:12:47;;;;;;;3.72;3.13;;;21.10;94.30;;;;;;4991783;28;20034;-74
2023/06/11 06:15:13;;;;;;;3.13;2.50;;;21.10;94.30;;;;;;4992079;28;20113;-75
2023/06/11 06:17:38;;;;;;;3.08;2.20;;;21.10;94.30;;;;;;4991535;28;20033;-73
2023/06/11 06:20:05;;;;;;;3.63;2.65;;;21.20;94.30;;;;;;4991492;28;20025;-72
2023/06/11 06:22:31;;;;;;;7.30;2.40;;;21.30;94.10;;;;;;4990257;28;20380;-70
2023/06/11 06:24:57;;;;;;;4.85;1.90;;;21.30;93.80;;;;;;4991484;28;20070;-71
2023/06/11 06:27:22;;;;;;;3.28;1.77;;;21.40;93.60;;;;;;4991592;28;20083;-70
2023/06/11 06:29:49;;;;;;;2.60;2.40;;;21.40;93.40;;;;;;4991631;28;20033;-73
2023/06/11 06:32:15;;;;;;;4.10;2.50;;;21.40;93.30;;;;;;4991268;28;20026;-73
2023/06/11 06:34:40;;;;;;;2.97;2.17;;;21.50;93.40;;;;;;4991515;28;20064;-73
2023/06/11 06:37:06;;;;;;;3.47;2.15;;;21.50;93.50;;;;;;4991272;28;20022;-72
2023/06/11 06:39:32;;;;;;;3.65;2.45;;;21.50;93.50;;;;;;4991367;28;20045;-73
2023/06/11 06:41:58;;;;;;;3.90;2.28;;;21.50;93.30;;;;;;4991488;28;20027;-73
2023/06/11 06:44:24;;;;;;;4.15;2.63;;;21.60;93.30;;;;;;4991169;28;20525;-73
2023/06/11 06:46:49;;;;;;;6.90;2.50;;;21.60;93.30;;;;;;4991252;28;20030;-73
2023/06/11 06:49:15;;;;;;;5.25;2.50;;;21.70;93.30;;;;;;4990338;28;20026;-73
2023/06/11 06:51:41;;;;;;;4.70;2.50;;;21.70;93.20;;;;;;4991287;28;20064;-73
2023/06/11 06:54:06;;;;;;;4.30;2.45;;;21.70;93.20;;;;;;4991128;28;20019;-72
2023/06/11 06:56:33;;;;;;;3.97;2.78;;;21.80;93.40;;;;;;5075219;28;20036;-72
2023/06/11 06:58:58;;;;;;;8.60;2.92;;;21.90;93.60;;;;;;5066886;28;20467;-72
2023/06/11 07:01:24;;;;;;;3.65;2.47;;;22.00;94.40;;;;;;4990586;28;20045;-72
2023/06/11 07:03:49;;;;;;;5.97;2.40;;;22.00;93.70;;;;;;4990863;28;20069;-75
2023/06/11 07:06:15;;;;;;;7.18;2.47;;;22.00;93.20;;;;;;4991163;28;20058;-74
2023/06/11 07:08:41;;;;;;;4.00;2.67;;;22.00;92.60;;;;;;4990923;28;20030;-75
2023/06/11 07:11:07;;;;;;;3.22;2.53;;;22.00;92.60;;;;;;4991154;28;20019;-73
2023/06/11 07:13:33;;;;;;;3.42;2.42;;;22.00;92.70;;;;;;4990685;28;20075;-73
2023/06/11 07:15:59;;;;;;;3.72;2.25;;;22.00;92.70;;;;;;4990709;28;20535;-77
2023/06/11 07:18:26;;;;;;;2.80;2.05;;;22.00;92.70;;;;;;4991024;28;20075;-77
2023/06/11 07:20:52;;;;;;;2.30;2.03;;;21.90;92.60;;;;;;4991100;28;20014;-76
2023/06/11 07:23:17;;;;;;;3.38;2.25;;;22.00;92.70;;;;;;4991012;28;20501;-76
2023/06/11 07:25:44;;;;;;;3.60;2.58;;;22.00;92.60;;;;;;4990869;28;20041;-73
2023/06/11 07:28:09;;;;;;;3.50;2.80;;;22.00;92.50;;;;;;4990471;28;20417;-74
2023/06/11 07:30:35;;;;;;;4.68;2.78;;;22.00;92.40;;;;;;4990700;28;20026;-74
2023/06/11 07:33:01;;;;;;;4.05;2.70;;;22.00;92.50;;;;;;4990938;28;20455;-75
2023/06/11 07:35:27;;;;;;;4.10;2.40;;;22.00;92.30;;;;;;4957066;23;20052;-74
2023/06/11 07:37:54;;;;;;;3.95;2.58;;;22.00;92.60;;;;;;4933116;29;20028;-74
2023/06/11 07:40:21;;;;;;;4.97;2.25;;;22.00;92.80;;;;;;4932509;29;20398;-74
2023/06/11 07:42:47;;;;;;;3.38;2.38;;;22.00;92.70;;;;;;4932605;29;20012;-73
2023/06/11 07:45:15;;;;;;;4.18;2.53;;;22.10;92.70;;;;;;4932381;29;20035;-73
2023/06/11 07:47:41;;;;;;;2.28;2.03;;;22.10;92.40;;;;;;4932428;29;20051;-72
2023/06/11 07:50:08;;;;;;;2.80;2.30;;;22.10;92.40;;;;;;4932825;29;20547;-71
2023/06/11 07:52:34;;;;;;;4.68;2.67;;;22.20;92.40;;;;;;4932812;28;20019;-73
2023/06/11 07:55:00;;;;;;;4.45;2.50;;;22.30;92.40;;;;;;4932595;29;20031;-73
2023/06/11 07:57:26;;;;;;;3.70;2.42;;;22.30;92.30;;;;;;4931993;29;20100;-74
2023/06/11 07:59:52;;;;;;;6.45;2.40;;;22.40;92.40;;;;;;4932446;29;20024;-72
2023/06/11 08:02:18;;;;;;;3.92;2.50;;;22.50;92.40;;;;;;4935885;29;20028;-73
2023/06/11 08:04:44;;;;;;;3.63;2.58;;;22.50;92.40;;;;;;4936169;29;20104;-72
2023/06/11 08:07:10;;;;;;;5.88;2.10;;;22.60;92.50;;;;;;4936238;28;20020;-72
2023/06/11 08:09:37;;;;;;;2.55;2.22;;;22.60;92.40;;;;;;4936096;29;20391;-72
2023/06/11 08:12:07;;;;;;;1.92;1.80;;;22.60;92.10;;;;;;4935958;29;20032;-72
2023/06/11 08:14:35;;;;;;;5.10;2.30;;;22.70;92.00;;;;;;4936066;29;20039;-72
2023/06/11 08:17:01;;;;;;;2.63;2.20;;;22.70;91.90;;;;;;4935937;29;20028;-72
2023/06/11 08:19:27;;;;;;;3.75;2.10;;;22.70;91.70;;;;;;4936108;29;20357;-73
2023/06/11 08:21:56;;;;;;;2.45;2.20;;;22.80;91.40;;;;;;4936093;29;20035;-71
2023/06/11 08:24:22;;;;;;;3.20;2.35;;;22.80;91.20;;;;;;4935743;29;20118;-72
2023/06/11 08:26:48;;;;;;;3.45;1.98;;;22.80;91.30;;;;;;4935537;28;20495;-72
2023/06/11 08:29:15;;;;;;;4.00;2.50;;;22.80;91.20;;;;;;4935693;29;20120;-73
2023/06/11 08:31:41;;;;;;;4.75;2.38;;;22.80;90.90;;;;;;4935835;29;20027;-73
2023/06/11 08:34:06;;;;;;;3.22;2.72;;;22.90;91.10;;;;;;4935595;28;20031;-73
2023/06/11 08:36:32;;;;;;;4.57;2.15;;;22.90;91.20;;;;;;4935653;29;20032;-72
2023/06/11 08:38:58;;;;;;;3.53;2.50;;;23.00;91.60;;;;;;4935493;29;20263;-72
2023/06/11 08:41:23;;;;;;;3.60;2.42;;;23.00;91.60;;;;;;4935593;28;20085;-72
2023/06/11 08:43:50;;;;;;;2.80;2.55;;;23.00;91.80;;;;;;4935379;29;20027;-73
2023/06/11 08:46:19;;;;;;;3.20;2.30;;;23.10;91.60;;;;;;4935516;29;20032;-73
2023/06/11 08:48:45;;;;;;;2.97;2.03;;;23.10;91.40;;;;;;4935495;29;20444;-73
2023/06/11 08:51:12;;;;;;;2.92;2.22;;;23.10;91.20;;;;;;4935242;29;20031;-73
2023/06/11 08:53:39;;;;;;;3.67;2.30;;;23.20;90.90;;;;;;4935228;29;20027;-74
2023/06/11 08:56:07;;;;;;;3.03;2.15;;;23.30;90.70;;;;;;4935589;28;20387;-72
2023/06/11 08:58:34;;;;;;;3.83;2.13;;;23.30;90.70;;;;;;4935361;29;20081;-72
2023/06/11 09:01:10;;;;;;;4.10;2.08;;;23.40;90.60;;;;;;4935324;29;20031;-73
2023/06/11 09:03:37;;;;;;;6.03;2.05;;;23.40;89.60;;;;;;4935367;29;20027;-73
2023/06/11 09:06:03;;;;;;;3.28;2.00;;;23.40;89.30;;;;;;4935226;29;20036;-73
2023/06/11 09:08:29;;;;;;;3.00;2.13;;;23.40;89.60;;;;;;4934919;29;20024;-72
2023/06/11 09:10:55;;;;;;;3.30;2.30;;;23.40;89.90;;;;;;4935052;29;20077;-72
2023/06/11 09:13:26;;;;;;;2.70;2.33;;;23.40;90.20;;;;;;4934786;29;20039;-73
2023/06/11 09:15:53;;;;;;;2.50;2.08;;;23.50;90.50;;;;;;4935255;29;20019;-71
2023/06/11 09:18:24;;;;;;;2.40;2.20;;;23.70;90.70;;;;;;4935314;29;20063;-72
2023/06/11 09:20:55;;;;;;;5.60;2.42;;;23.80;90.70;;;;;;4934898;29;20020;-73
2023/06/11 09:23:26;;;;;;;3.95;2.20;;;23.90;90.40;;;;;;4934802;29;20063;-73
2023/06/11 09:25:51;;;;;;;3.13;2.35;;;24.00;90.20;;;;;;4934893;29;20131;-72
2023/06/11 09:28:17;;;;;;;2.47;2.00;;;24.20;89.50;;;;;;4934912;29;20059;-72
2023/06/11 09:30:53;;;;;;;2.30;2.08;;;24.20;87.50;;;;;;4933696;28;20024;-73
2023/06/11 09:33:19;;;;;;;3.72;2.00;;;24.30;87.20;;;;;;4934656;29;20186;-73
2023/06/11 09:35:45;;;;;;;3.47;2.60;;;24.40;87.70;;;;;;4933608;28;20147;-73
2023/06/11 09:38:15;;;;;;;4.05;2.25;;;24.50;86.80;;;;;;4934925;29;20028;-72
2023/06/11 09:40:46;;;;;;;2.40;2.13;;;24.50;85.90;;;;;;4933472;28;20391;-73
2023/06/11 09:43:11;;;;;;;2.55;2.13;;;24.50;84.70;;;;;;4934740;29;20031;-73
2023/06/11 09:45:37;;;;;;;2.67;2.08;;;24.60;84.30;;;;;;4934454;29;20487;-73
2023/06/11 09:48:04;;;;;;;2.10;1.90;;;24.70;83.60;;;;;;4934501;29;20055;-73
2023/06/11 09:50:32;;;;;;;4.13;1.98;;;24.80;82.30;;;;;;4934576;29;20426;-72
2023/06/11 09:53:02;;;;;;;5.00;1.85;;;24.90;81.60;;;;;;4934517;29;20035;-73
2023/06/11 09:55:30;;;;;;;3.60;1.50;;;24.90;78.90;;;;;;4934349;29;20034;-73
2023/06/11 09:57:56;;;;;;;2.10;1.90;;;25.00;79.40;;;;;;4934388;29;20078;-73
2023/06/11 10:00:22;;;;;;;2.15;1.83;;;25.00;80.50;;;;;;4934251;28;20024;-73
2023/06/11 10:02:47;;;;;;;2.08;1.88;;;25.00;79.80;;;;;;4934457;29;20031;-72
2023/06/11 10:05:14;;;;;;;1.60;1.50;;;25.10;79.40;;;;;;4934218;29;20032;-73
2023/06/11 10:07:46;;;;;;;2.33;1.70;;;25.10;79.00;;;;;;4934214;29;20035;-73
2023/06/11 10:10:13;;;;;;;;;;;25.10;79.50;;;;;;4934663;29;20066;-72
2023/06/11 10:12:39;;;;;;;2.55;2.00;;;25.10;79.70;;;;;;4934436;28;19914;-73
2023/06/11 10:15:10;;;;;;;2.28;1.83;;;25.20;80.40;;;;;;4934145;29;20488;-73
2023/06/11 10:17:36;;;;;;;2.25;2.05;;;25.30;81.00;;;;;;4934162;29;20035;-73
2023/06/11 10:20:02;;;;;;;4.20;2.00;;;25.40;80.60;;;;;;4934259;29;20032;-72
2023/06/11 10:22:33;;;;;;;2.03;1.80;;;25.50;79.20;;;;;;4934086;29;20353;-72
2023/06/11 10:25:03;;;;;;;2.90;2.00;;;25.50;79.60;;;;;;4932640;29;20071;-73
2023/06/11 10:27:42;;;;;;;2.10;1.90;;;25.60;80.20;;;;;;4933871;29;20024;-74
2023/06/11 10:30:08;;;;;;;1.95;1.75;;;25.70;79.80;;;;;;4933857;29;20387;-73
2023/06/11 10:32:34;;;;;;;2.08;1.90;;;25.90;78.70;;;;;;4933883;29;20023;-73
2023/06/11 10:35:04;;;;;;;3.20;2.08;;;26.00;79.00;;;;;;4933580;29;20048;-73
2023/06/11 10:37:37;;;;;;;3.70;2.38;;;26.00;79.80;;;;;;4933872;29;20117;-73
2023/06/11 10:40:08;;;;;;;2.72;2.53;;;26.10;79.40;;;;;;4933784;29;20028;-73
2023/06/11 10:42:42;;;;;;;4.60;3.53;;;26.30;78.60;;;;;;4933908;29;20052;-73
2023/06/11 10:45:14;;;;;;;5.70;3.50;;;26.30;77.40;;;;;;4933800;29;20047;-73
2023/06/11 10:47:42;;;;;;;;;;;26.40;78.40;;;;;;4934131;29;20042;-73
2023/06/11 10:50:10;;;;;;;2.03;1.83;;;26.60;79.20;;;;;;4933750;28;19907;-72
2023/06/11 10:53:09;;;;;;;2.15;1.95;;;26.60;79.50;;;;;;4933276;29;20035;-74
2023/06/11 10:55:36;;;;;;;3.20;2.05;;;26.70;78.20;;;;;;4933529;29;20506;-73
2023/06/11 10:58:02;;;;;;;2.40;1.92;;;26.70;77.50;;;;;;4932641;29;20034;-73
2023/06/11 11:00:32;;;;;;;1.77;1.67;;;26.80;76.40;;;;;;4930783;29;20043;-73
2023/06/11 11:03:04;;;;;;;2.35;2.03;;;26.90;76.30;;;;;;4931336;29;20028;-73
2023/06/11 11:05:30;;;;;;;2.72;1.95;;;27.00;76.50;;;;;;4933534;28;20071;-72
2023/06/11 11:07:58;;;;;;;3.08;1.95;;;27.00;75.10;;;;;;4933533;29;20027;-72
2023/06/11 11:10:26;;;;;;;2.90;2.60;;;27.00;74.60;;;;;;4933475;29;20097;-73
2023/06/11 11:12:53;;;;;;;3.05;2.47;;;26.90;74.40;;;;;;4933086;29;20107;-73
2023/06/11 11:15:19;;;;;;;2.92;2.00;;;26.80;75.60;;;;;;4932750;29;20035;-72
2023/06/11 11:17:45;;;;;;;3.30;2.30;;;26.70;75.60;;;;;;4933070;29;20134;-73
2023/06/11 11:20:19;;;;;;;3.35;1.95;;;26.60;76.20;;;;;;4933335;29;20190;-74
2023/06/11 11:22:51;;;;;;;4.63;1.95;;;26.50;77.10;;;;;;4931802;29;20094;-74
2023/06/11 11:25:19;;;;;;;5.70;2.10;;;26.40;77.70;;;;;;4930291;29;20055;-75
2023/06/11 11:27:45;;;;;;;4.10;2.00;;;26.40;76.70;;;;;;4930016;29;20109;-71
2023/06/11 11:30:11;;;;;;;2.92;2.08;;;26.40;77.90;;;;;;4931794;28;20130;-73
2023/06/11 11:32:37;;;;;;;2.08;1.65;;;26.30;78.00;;;;;;4932887;29;20028;-73
2023/06/11 11:35:04;;;;;;;3.20;1.90;;;26.30;76.20;;;;;;4932393;29;20495;-73
2023/06/11 11:37:30;;;;;;;3.30;1.73;;;26.30;76.50;;;;;;4932587;29;20031;-72
2023/06/11 11:39:59;;;;;;;3.30;1.48;;;26.20;75.40;;;;;;4932841;29;20028;-73
2023/06/11 11:42:25;;;;;;;1.50;1.40;;;26.10;76.00;;;;;;4933056;29;20106;-73
2023/06/11 11:44:54;;;;;;;2.22;1.60;;;26.00;77.30;;;;;;4932659;28;20110;-74
2023/06/11 11:47:22;;;;;;;2.08;1.63;;;25.90;77.40;;;;;;4951096;28;20482;-73
2023/06/11 11:49:53;;;;;;;2.40;1.58;;;25.80;77.70;;;;;;4951892;28;20024;-73
2023/06/11 11:52:20;;;;;;;3.00;1.80;;;25.70;77.80;;;;;;4951827;28;20031;-73
2023/06/11 11:54:46;;;;;;;3.30;1.73;;;25.60;78.30;;;;;;4951686;29;20019;-73
2023/06/11 11:57:12;;;;;;;6.18;1.88;;;25.50;78.80;;;;;;4951598;29;20096;-75
2023/06/11 11:59:38;;;;;;;1.92;1.65;;;25.50;79.20;;;;;;4951891;29;20102;-74
2023/06/11 12:02:05;;;;;;;3.60;1.67;;;25.30;78.80;;;;;;4951355;29;20490;-76
2023/06/11 12:04:38;;;;;;;3.78;1.63;;;25.30;79.10;;;;;;4951342;28;20040;-76
2023/06/11 12:07:06;;;;;;;5.65;2.00;;;25.20;79.50;;;;;;4951699;28;20055;-76
2023/06/11 12:09:34;;;;;;;3.33;1.75;;;25.10;80.60;;;;;;4934045;28;20062;-75
2023/06/11 12:12:00;;;;;;;5.70;2.20;;;24.90;81.80;;;;;;4951353;28;20379;-76
2023/06/11 12:14:26;;;;;;;2.40;2.20;;;24.80;82.40;;;;;;4950831;29;20019;-76
2023/06/11 12:16:51;;;;;;;7.20;3.40;;;24.70;83.10;;;;;;4950676;29;20020;-75
2023/06/11 12:19:18;;;;;;;4.75;2.90;;;24.60;83.60;;;;;;4950942;28;20024;-77
2023/06/11 12:21:47;;;;;;;5.20;2.85;;;24.50;83.80;;;;;;4951185;29;20359;-77
2023/06/11 12:24:16;;;;;;;7.00;2.33;;;24.50;84.70;;;;;;4951007;29;20039;-75
2023/06/11 12:26:45;;;;;;;4.70;2.38;;;24.50;85.00;;;;;;4951598;28;20035;-76
2023/06/11 12:29:11;;;;;;;3.63;2.30;;;24.40;85.20;;;;;;4951481;29;20027;-76
2023/06/11 12:31:38;;;;;;;6.03;2.20;;;24.40;85.80;;;;;;4951347;29;20030;-75
2023/06/11 12:34:05;;;;;;;3.50;1.98;;;24.40;85.60;;;;;;4951319;28;20047;-76
2023/06/11 12:36:33;;;;;;;2.38;2.17;;;24.30;84.40;;;;;;4951120;28;20044;-73
2023/06/11 12:39:01;;;;;;;2.47;2.15;;;24.30;84.80;;;;;;4951024;28;20027;-74
2023/06/11 12:41:27;;;;;;;3.22;2.20;;;24.30;85.30;;;;;;4951041;28;20487;-76
2023/06/11 12:43:53;;;;;;;5.05;2.35;;;24.30;86.10;;;;;;4950637;29;20035;-75
2023/06/11 12:46:18;;;;;;;5.50;2.90;;;24.30;86.30;;;;;;4950758;28;20035;-76
2023/06/11 12:48:44;;;;;;;3.08;2.05;;;24.30;86.00;;;;;;4954205;28;20051;-76